Time;durP1;ratioP1;P1;durP2;ratioP2;P2;SDS_P1;SDS_P2;PMS_P1;PMS_P2;Temp;Humidity;BMP_temperature;BMP_pressure;BME280_temperature;BME280_humidity;BME280_pressure;Samples;Min_cycle;Max_cycle;Signal;HPM_P1;HPM_P2
2021/01/14 00:02:03;;;;;;;;;;;;;;;-1.61;100.00;99414.28;5114039;28;19919;-70
2021/01/14 00:04:29;;;;;;;;;;;;;;;-1.56;100.00;99422.03;5114161;28;19919;-70
2021/01/14 00:06:56;;;;;;;;;;;;;;;-1.57;100.00;99407.84;5114110;28;20373;-69
2021/01/14 00:09:22;;;;;;;;;;;;;;;-1.58;100.00;99411.44;5114153;28;20017;-70
2021/01/14 00:11:47;;;;;;;;;;;;;;;-1.55;100.00;99416.63;5114194;28;19926;-70
2021/01/14 00:14:13;;;;;;;;;;;;;;;-1.53;100.00;99414.75;5114136;28;19968;-70
2021/01/14 00:16:39;;;;;;;;;;;;;;;-1.54;100.00;99413.03;5113983;28;20387;-70
2021/01/14 00:19:06;;;;;;;;;;;;;;;-1.50;100.00;99412.88;5113789;28;19919;-70
2021/01/14 00:21:32;;;;;;;;;;;;;;;-1.51;100.00;99409.34;5114133;28;20383;-70
2021/01/14 00:23:58;;;;;;;;;;;;;;;-1.50;100.00;99412.88;5113974;28;20404;-70
2021/01/14 00:26:23;;;;;;;;;;;;;;;-1.50;100.00;99416.38;5113446;28;19923;-70
2021/01/14 00:28:49;;;;;;;;;;;;;;;-1.45;100.00;99414.34;5113144;28;19920;-70
2021/01/14 00:31:15;;;;;;;;;;;;;;;-1.44;100.00;99424.06;5113889;28;19919;-70
2021/01/14 00:33:41;;;;;;;;;;;;;;;-1.42;100.00;99422.16;5113741;28;19927;-70
2021/01/14 00:36:07;;;;;;;;;;;;;;;-1.39;100.00;99424.69;5113429;28;20368;-70
2021/01/14 00:38:33;;;;;;;;;;;;;;;-1.38;100.00;99428.19;5113402;28;20748;-70
2021/01/14 00:40:58;;;;;;;;;;;;;;;-1.35;100.00;99422.69;5113536;28;20353;-70
2021/01/14 00:43:24;;;;;;;;;;;;;;;-1.32;100.00;99433.22;5113390;28;20345;-70
2021/01/14 00:45:50;;;;;;;;;;;;;;;-1.30;100.00;99428.66;5113432;28;19919;-70
2021/01/14 00:48:16;;;;;;;;;;;;;;;-1.27;100.00;99430.28;5113472;28;19943;-70
2021/01/14 00:50:42;;;;;;;;;;;;;;;-1.28;100.00;99437.44;5113473;28;19920;-70
2021/01/14 00:53:09;;;;;;;;;;;;;;;-1.26;100.00;99435.53;5112725;28;21555;-70
2021/01/14 00:55:35;;;;;;;;;;;;;;;-1.26;100.00;99445.34;5113224;28;20533;-70
2021/01/14 00:58:01;;;;;;;;;;;;;;;-1.24;100.00;99446.97;5113272;28;19969;-70
2021/01/14 01:00:27;;;;;;;;;;;;;;;-1.21;100.00;99445.94;5113205;28;19931;-69
2021/01/14 01:02:53;;;;;;;;;;;;;;;-1.19;100.00;99450.25;5112978;28;20389;-70
2021/01/14 01:05:19;;;;;;;;;;;;;;;-1.15;100.00;99464.25;5111993;28;19971;-69
2021/01/14 01:07:48;;;;;;;;;;;;;;;-1.14;100.00;99468.66;5111931;28;20289;-69
2021/01/14 01:10:15;;;;;;;;;;;;;;;-1.12;100.00;99480.09;5108575;28;19978;-69
2021/01/14 01:12:41;;;;;;;;;;;;;;;-1.10;100.00;99485.34;5112722;28;19996;-70
2021/01/14 01:15:07;;;;;;;;;;;;;;;-1.06;100.00;99497.53;5113008;28;20385;-70
2021/01/14 01:17:33;;;;;;;;;;;;;;;-1.04;100.00;99501.84;5112905;28;19955;-70
2021/01/14 01:19:59;;;;;;;;;;;;;;;-1.07;100.00;99506.47;5113008;28;19968;-70
2021/01/14 01:22:25;;;;;;;;;;;;;;;-1.04;100.00;99519.66;5112708;28;19927;-70
2021/01/14 01:24:51;;;;;;;;;;;;;;;-1.08;100.00;99531.38;5112868;28;19974;-70
2021/01/14 01:27:18;;;;;;;;;;;;;;;-1.14;100.00;99531.72;5112422;28;20048;-70
2021/01/14 01:29:43;;;;;;;;;;;;;;;-1.20;100.00;99546.22;5112803;28;19934;-70
2021/01/14 01:32:09;;;;;;;;;;;;;;;-1.32;100.00;99555.69;5112636;28;19924;-70
2021/01/14 01:34:35;;;;;;;;;;;;;;;-1.43;100.00;99564.22;5112652;28;20469;-70
2021/01/14 01:37:01;;;;;;;;;;;;;;;-1.56;100.00;99582.59;5112420;28;19924;-70
2021/01/14 01:39:26;;;;;;;;;;;;;;;-1.65;100.00;99592.84;5112187;28;19946;-70
2021/01/14 01:41:55;;;;;;;;;;;;;;;-1.67;100.00;99600.91;5112623;28;19924;-70
2021/01/14 01:44:23;;;;;;;;;;;;;;;-1.66;100.00;99617.72;5111962;28;20014;-70
2021/01/14 01:46:49;;;;;;;;;;;;;;;-1.64;100.00;99619.38;5112119;28;19923;-70
2021/01/14 01:49:14;;;;;;;;;;;;;;;-1.60;100.00;99622.75;5112454;28;19935;-70
2021/01/14 01:51:41;;;;;;;;;;;;;;;-1.56;100.00;99634.97;5112372;28;20018;-70
2021/01/14 01:54:07;;;;;;;;;;;;;;;-1.50;100.00;99641.81;5112304;28;20290;-70
2021/01/14 01:56:33;;;;;;;;;;;;;;;-1.44;100.00;99652.13;5112142;28;20345;-70
2021/01/14 01:58:59;;;;;;;;;;;;;;;-1.41;100.00;99646.69;5112214;28;20371;-70
2021/01/14 02:01:27;;;;;;;;;;;;;;;-1.38;100.00;99659.81;5111981;28;19934;-70
2021/01/14 02:03:53;;;;;;;;;;;;;;;-1.39;100.00;99666.97;5112052;28;19982;-70
2021/01/14 02:06:19;;;;;;;;;;;;;;;-1.38;100.00;99675.81;5111854;28;20385;-70
2021/01/14 02:08:47;;;;;;;;;;;;;;;-1.33;100.00;99688.91;5112021;28;20040;-70
2021/01/14 02:11:18;;;;;;;;;;;;;;;-1.30;100.00;99699.41;5112109;28;19967;-70
2021/01/14 02:13:47;;;;;;;;;;;;;;;-1.27;100.00;99696.59;5111463;28;20297;-69
2021/01/14 02:16:14;;;;;;;;;;;;;;;-1.26;100.00;99709.81;5111731;28;19962;-70
2021/01/14 02:18:41;;;;;;;;;;;;;;;-1.26;100.00;99712.47;5111760;28;20039;-69
2021/01/14 02:21:08;;;;;;;;;;;;;;;-1.25;100.00;99721.34;5111906;28;19923;-69
2021/01/14 02:23:37;;;;;;;;;;;;;;;-1.29;100.00;99728.63;5111743;28;20023;-69
2021/01/14 02:26:09;;;;;;;;;;;;;;;-1.30;100.00;99744.66;5111824;28;19953;-69
2021/01/14 02:28:36;;;;;;;;;;;;;;;-1.31;100.00;99749.16;5112023;28;19924;-69
2021/01/14 02:31:02;;;;;;;;;;;;;;;-1.35;100.00;99758.19;5111913;28;20023;-70
2021/01/14 02:33:28;;;;;;;;;;;;;;;-1.37;100.00;99768.91;5111843;28;19963;-70
2021/01/14 02:35:54;;;;;;;;;;;;;;;-1.35;100.00;99776.81;5111361;28;19931;-69
2021/01/14 02:38:19;;;;;;;;;;;;;;;-1.33;100.00;99785.63;5111761;28;19997;-70
2021/01/14 02:40:45;;;;;;;;;;;;;;;-1.28;100.00;99799.59;5111799;28;19924;-69
2021/01/14 02:43:12;;;;;;;;;;;;;;;-1.26;100.00;99803.03;5111652;28;19924;-69
2021/01/14 02:45:38;;;;;;;;;;;;;;;-1.23;100.00;99810.00;5111595;28;20015;-69
2021/01/14 02:48:05;;;;;;;;;;;;;;;-1.20;100.00;99825.88;5112041;28;19927;-70
2021/01/14 02:50:34;;;;;;;;;;;;;;;-1.17;100.00;99822.19;5112421;28;19963;-69
2021/01/14 02:53:03;;;;;;;;;;;;;;;-1.15;100.00;99833.63;5115788;28;20231;-70
2021/01/14 02:55:29;;;;;;;;;;;;;;;-1.13;100.00;99853.94;5115762;28;20023;-69
2021/01/14 02:57:55;;;;;;;;;;;;;;;-1.12;100.00;99860.13;5115427;28;20422;-70
2021/01/14 03:00:22;;;;;;;;;;;;;;;-1.10;100.00;99869.75;5115588;28;19935;-70
2021/01/14 03:02:47;;;;;;;;;;;;;;;-1.08;100.00;99873.22;5115461;28;20483;-70
2021/01/14 03:05:13;;;;;;;;;;;;;;;-1.06;100.00;99887.31;5115542;28;19932;-69
2021/01/14 03:07:39;;;;;;;;;;;;;;;-1.07;100.00;99885.63;5115066;28;20312;-70
2021/01/14 03:10:05;;;;;;;;;;;;;;;-1.04;100.00;99901.47;5115334;28;19927;-70
2021/01/14 03:12:50;;;;;;;;;;;;;;;-1.04;100.00;99906.78;5115753;28;19930;-70
2021/01/14 03:15:16;;;;;;;;;;;;;;;-1.02;100.00;99920.03;5114868;28;20300;-70
2021/01/14 03:17:42;;;;;;;;;;;;;;;-1.01;100.00;99924.44;5115311;28;19924;-70
2021/01/14 03:20:08;;;;;;;;;;;;;;;-0.98;100.00;99926.09;5115174;28;20312;-69
2021/01/14 03:22:38;;;;;;;;;;;;;;;-0.99;100.00;99941.19;5115103;28;19924;-69
2021/01/14 03:25:05;;;;;;;;;;;;;;;-0.96;100.00;99941.06;5115154;28;19930;-70
2021/01/14 03:27:35;;;;;;;;;;;;;;;-0.95;100.00;99945.47;5114994;28;19943;-70
2021/01/14 03:30:01;;;;;;;;;;;;;;;-0.94;100.00;99965.84;5115067;28;19931;-70
2021/01/14 03:32:26;;;;;;;;;;;;;;;-0.94;100.00;99968.50;5113464;28;19928;-70
2021/01/14 03:34:53;;;;;;;;;;;;;;;-0.94;100.00;99971.16;5115047;28;19931;-70
2021/01/14 03:37:19;;;;;;;;;;;;;;;-0.92;100.00;99985.28;5113556;28;19927;-70
2021/01/14 03:39:45;;;;;;;;;;;;;;;-0.91;100.00;99994.16;5113613;28;19927;-70
2021/01/14 03:42:11;;;;;;;;;;;;;;;-0.91;100.00;100003.03;5114755;28;19923;-70
2021/01/14 03:44:36;;;;;;;;;;;;;;;-0.90;100.00;100012.72;5114669;28;19946;-70
2021/01/14 03:47:02;;;;;;;;;;;;;;;-0.90;100.00;100020.72;5114558;28;19932;-70
2021/01/14 03:49:28;;;;;;;;;;;;;;;-0.87;100.00;100022.38;5114454;28;19993;-70
2021/01/14 03:51:55;;;;;;;;;;;;;;;-0.88;100.00;100031.34;5114671;28;19932;-70
2021/01/14 03:54:21;;;;;;;;;;;;;;;-0.88;100.00;100034.84;5114470;28;20400;-70
2021/01/14 03:56:47;;;;;;;;;;;;;;;-0.86;100.00;100043.63;5114438;28;19924;-70
2021/01/14 03:59:13;;;;;;;;;;;;;;;-0.82;100.00;100059.50;5114445;28;20456;-70
2021/01/14 04:01:39;;;;;;;;;;;;;;;-0.82;100.00;100060.34;5114295;28;20036;-70
2021/01/14 04:04:04;;;;;;;;;;;;;;;-0.82;100.00;100065.69;5114326;28;19958;-70
2021/01/14 04:06:32;;;;;;;;;;;;;;;-0.80;100.00;100073.59;5114324;28;19927;-70
2021/01/14 04:08:59;;;;;;;;;;;;;;;-0.79;100.00;100078.88;5113904;28;19959;-70
2021/01/14 04:11:25;;;;;;;;;;;;;;;-0.78;100.00;100082.41;5114173;28;20427;-69
2021/01/14 04:13:51;;;;;;;;;;;;;;;-0.78;100.00;100087.75;5112918;28;19924;-70
2021/01/14 04:16:17;;;;;;;;;;;;;;;-0.78;100.00;100093.06;5112778;28;20301;-70
2021/01/14 04:18:43;;;;;;;;;;;;;;;-0.78;100.00;100093.06;5114164;28;20029;-70
2021/01/14 04:21:09;;;;;;;;;;;;;;;-0.77;100.00;100108.16;5114117;28;20292;-70
2021/01/14 04:23:34;;;;;;;;;;;;;;;-0.75;100.00;100114.25;5113928;28;19939;-70
2021/01/14 04:26:01;;;;;;;;;;;;;;;-0.77;100.00;100105.47;5113750;28;19935;-69
2021/01/14 04:28:27;;;;;;;;;;;;;;;-0.73;100.00;100125.72;5113671;28;19924;-70
2021/01/14 04:30:53;;;;;;;;;;;;;;;-0.71;100.00;100131.84;5113837;28;19970;-70
2021/01/14 04:33:19;;;;;;;;;;;;;;;-0.70;100.00;100138.91;5113685;28;19928;-70
2021/01/14 04:35:45;;;;;;;;;;;;;;;-0.70;100.00;100146.91;5113502;28;19924;-70
2021/01/14 04:38:11;;;;;;;;;;;;;;;-0.70;100.00;100154.91;5113679;28;19959;-70
2021/01/14 04:40:37;;;;;;;;;;;;;;;-0.70;100.00;100165.56;5113610;28;19924;-70
2021/01/14 04:43:05;;;;;;;;;;;;;;;-0.68;100.00;100166.38;5113252;28;19947;-70
2021/01/14 04:45:32;;;;;;;;;;;;;;;-0.69;100.00;100178.84;5113313;28;19962;-70
2021/01/14 04:47:58;;;;;;;;;;;;;;;-0.68;100.00;100185.06;5113522;28;19923;-70
2021/01/14 04:50:26;;;;;;;;;;;;;;;-0.66;100.00;100190.31;5113475;28;20301;-70
2021/01/14 04:52:54;;;;;;;;;;;;;;;-0.66;100.00;100199.16;5113527;28;20407;-70
2021/01/14 04:55:21;;;;;;;;;;;;;;;-0.64;100.00;100201.75;5113412;28;19928;-70
2021/01/14 04:57:50;;;;;;;;;;;;;;;-0.64;100.00;100207.09;5113183;28;20043;-70
2021/01/14 05:00:17;;;;;;;;;;;;;;;-0.64;100.00;100213.31;5113048;28;20450;-70
2021/01/14 05:02:52;;;;;;;;;;;;;;;-0.63;100.00;100219.50;5112990;28;19966;-69
2021/01/14 05:05:21;;;;;;;;;;;;;;;-0.65;100.00;100227.56;5113206;28;19955;-70
2021/01/14 05:07:53;;;;;;;;;;;;;;;-0.63;100.00;100236.34;5113138;28;20345;-70
2021/01/14 05:10:23;;;;;;;;;;;;;;;-0.63;100.00;100238.16;5113195;28;19931;-70
2021/01/14 05:12:49;;;;;;;;;;;;;;;-0.64;100.00;100249.75;5112386;28;19924;-70
2021/01/14 05:15:15;;;;;;;;;;;;;;;-0.63;100.00;100256.81;5112695;28;20436;-69
2021/01/14 05:17:42;;;;;;;;;;;;;;;-0.64;100.00;100268.41;5112869;28;19955;-70
2021/01/14 05:20:08;;;;;;;;;;;;;;;-0.65;100.00;100275.56;5112813;28;20424;-70
2021/01/14 05:22:37;;;;;;;;;;;;;;;-0.63;100.00;100279.00;5112507;28;19974;-70
2021/01/14 05:25:04;;;;;;;;;;;;;;;-0.63;100.00;100284.34;5112781;28;19966;-70
2021/01/14 05:27:30;;;;;;;;;;;;;;;-0.63;100.00;100294.16;5112512;28;20022;-70
2021/01/14 05:30:02;;;;;;;;;;;;;;;-0.64;100.00;100298.63;5112732;28;19963;-70
2021/01/14 05:32:32;;;;;;;;;;;;;;;-0.65;100.00;100304.03;5112604;28;19970;-69
2021/01/14 05:34:58;;;;;;;;;;;;;;;-0.71;100.00;100302.44;5112627;28;19971;-70
2021/01/14 05:37:25;;;;;;;;;;;;;;;-0.74;100.00;100319.44;5107530;28;19977;-69
2021/01/14 05:39:51;;;;;;;;;;;;;;;-0.75;100.00;100324.84;5111877;28;19947;-69
2021/01/14 05:42:18;;;;;;;;;;;;;;;-0.74;100.00;100332.75;5095443;28;19930;-70
2021/01/14 05:44:44;;;;;;;;;;;;;;;-0.74;100.00;100334.56;5100752;28;19924;-69
2021/01/14 05:47:20;;;;;;;;;;;;;;;-0.74;100.00;100335.44;5096982;28;19931;-69
2021/01/14 05:49:56;;;;;;;;;;;;;;;-0.73;100.00;100347.84;5098000;28;19924;-69
2021/01/14 05:52:24;;;;;;;;;;;;;;;-0.73;100.00;100349.66;5093569;28;19966;-69
2021/01/14 05:54:53;;;;;;;;;;;;;;;-0.77;100.00;100356.88;5091848;28;19931;-69
2021/01/14 05:57:19;;;;;;;;;;;;;;;-0.81;100.00;100360.63;5091359;28;20385;-69
2021/01/14 05:59:52;;;;;;;;;;;;;;;-0.90;100.00;100372.50;5091738;28;19977;-69
2021/01/14 06:02:26;;;;;;;;;;;;;;;-0.94;100.00;100378.88;5090494;28;19924;-69
2021/01/14 06:04:52;;;;;;;;;;;;;;;-0.92;100.00;100385.03;5091666;28;20425;-69
2021/01/14 06:07:18;;;;;;;;;;;;;;;-0.92;100.00;100401.00;5091502;28;19931;-69
2021/01/14 06:09:45;;;;;;;;;;;;;;;-0.89;100.00;100408.88;5091662;28;19924;-69
2021/01/14 06:12:11;;;;;;;;;;;;;;;-0.87;100.00;100411.47;5091665;28;19928;-69
2021/01/14 06:14:37;;;;;;;;;;;;;;;-0.82;100.00;100425.50;5093851;28;19931;-69
2021/01/14 06:17:04;;;;;;;;;;;;;;;-0.79;100.00;100421.84;5108416;28;19932;-68
2021/01/14 06:19:30;;;;;;;;;;;;;;;-0.76;100.00;100433.28;5111248;28;19986;-69
2021/01/14 06:21:56;;;;;;;;;;;;;;;-0.80;100.00;100425.44;5095954;28;20027;-69
2021/01/14 06:24:24;;;;;;;;;;;;;;;-0.82;100.00;100445.97;5091265;28;19928;-69
2021/01/14 06:26:52;;;;;;;;;;;;;;;-0.86;100.00;100446.06;5090757;28;19931;-69
2021/01/14 06:29:18;;;;;;;;;;;;;;;-0.89;100.00;100454.19;5090591;28;19931;-69
2021/01/14 06:31:44;;;;;;;;;;;;;;;-0.89;100.00;100456.84;5091194;28;19967;-69
2021/01/14 06:34:11;;;;;;;;;;;;;;;-0.89;100.00;100469.31;5091011;28;19997;-69
2021/01/14 06:36:39;;;;;;;;;;;;;;;-0.94;100.00;100469.47;5091065;28;19950;-70
2021/01/14 06:39:10;;;;;;;;;;;;;;;-0.92;100.00;100474.75;5090986;28;20014;-70
2021/01/14 06:41:37;;;;;;;;;;;;;;;-0.93;100.00;100479.22;5091232;28;19971;-70
2021/01/14 06:44:05;;;;;;;;;;;;;;;-0.90;100.00;100486.22;5094308;28;19923;-70
2021/01/14 06:46:33;;;;;;;;;;;;;;;-0.94;100.00;100496.13;5093904;28;19955;-70
2021/01/14 06:49:00;;;;;;;;;;;;;;;-1.04;100.00;100498.28;5109178;28;19946;-70
2021/01/14 06:51:31;;;;;;;;;;;;;;;-1.05;100.00;100509.84;5094059;28;19928;-70
2021/01/14 06:54:01;;;;;;;;;;;;;;;-1.05;100.00;100524.97;5092938;28;19930;-70
2021/01/14 06:56:32;;;;;;;;;;;;;;;-1.14;100.00;100522.66;5094573;28;20009;-70
2021/01/14 06:59:01;;;;;;;;;;;;;;;-1.21;100.00;100530.84;5104059;28;19924;-70
2021/01/14 07:01:28;;;;;;;;;;;;;;;-1.27;100.00;100535.53;5107426;28;19991;-70
2021/01/14 07:03:59;;;;;;;;;;;;;;;-1.30;100.00;100539.16;5095553;28;19924;-68
2021/01/14 07:06:27;;;;;;;;;;;;;;;-1.31;100.00;100542.78;5097796;28;19990;-69
2021/01/14 07:09:08;;;;;;;;;;;;;;;-1.35;100.00;100546.44;5098699;28;19973;-68
2021/01/14 07:11:39;;;;;;;;;;;;;;;-1.45;100.00;100561.88;5110226;28;19923;-68
2021/01/14 07:14:11;;;;;;;;;;;;;;;-1.56;100.00;100561.38;5111221;28;19935;-68
2021/01/14 07:16:40;;;;;;;;;;;;;;;-1.67;100.00;100576.81;5108272;28;19924;-68
2021/01/14 07:19:06;;;;;;;;;;;;;;;-1.78;100.00;100579.84;5104901;28;19981;-68
2021/01/14 07:21:36;;;;;;;;;;;;;;;-1.91;100.00;100596.19;5109659;28;19931;-67
2021/01/14 07:24:05;;;;;;;;;;;;;;;-1.97;100.00;100600.84;5104689;28;19924;-67
2021/01/14 07:26:32;;;;;;;;;;;;;;;-2.09;100.00;100597.63;5089597;28;19963;-67
2021/01/14 07:29:00;;;;;;;;;;;;;;;-2.12;100.00;100610.19;5091427;28;20020;-68
2021/01/14 07:31:27;;;;;;;;;;;;;;;-2.15;100.00;100620.88;5109416;28;20404;-67
2021/01/14 07:33:54;;;;;;;;;;;;;;;-2.23;100.00;100627.31;5102022;28;19923;-67
2021/01/14 07:36:21;;;;;;;;;;;;;;;-2.30;100.00;100625.75;5099322;28;19970;-67
2021/01/14 07:38:48;;;;;;;;;;;;;;;-2.33;100.00;100639.13;5114642;28;19970;-67
2021/01/14 07:41:14;;;;;;;;;;;;;;;-2.35;100.00;100635.66;5113792;28;19931;-67
2021/01/14 07:43:41;;;;;;;;;;;;;;;-2.22;100.00;100642.38;5103376;28;19924;-68
2021/01/14 07:46:13;;;;;;;;;;;;;;;-1.89;100.00;100646.72;5100663;28;19986;-68
2021/01/14 07:48:39;;;;;;;;;;;;;;;-1.41;100.00;100656.72;5114415;28;19934;-67
2021/01/14 07:51:06;;;;;;;;;;;;;;;-1.05;100.00;100667.06;5110566;28;19928;-68
2021/01/14 07:53:32;;;;;;;;;;;;;;;-0.82;100.00;100652.06;5108487;28;19959;-68
2021/01/14 07:56:18;;;;;;;;;;;;;;;-0.72;100.00;100668.59;5106817;28;19924;-68
2021/01/14 07:58:45;;;;;;;;;;;;;;;-0.66;100.00;100665.72;5109528;28;19963;-68
2021/01/14 08:01:11;;;;;;;;;;;;;;;-0.57;100.00;100677.88;5107824;28;20399;-68
2021/01/14 08:03:37;;;;;;;;;;;;;;;-0.52;100.00;100676.78;5113150;28;19959;-68
2021/01/14 08:06:16;;;;;;;;;;;;;;;-0.47;100.00;100694.41;5100572;28;20338;-68
2021/01/14 08:08:53;;;;;;;;;;;;;;;-0.45;100.00;100688.09;5093515;28;19925;-68
2021/01/14 08:11:20;;;;;;;;;;;;;;;-0.44;100.00;100699.63;5097717;28;19971;-68
2021/01/14 08:14:04;;;;;;;;;;;;;;;-0.43;100.00;100696.03;5097742;28;19928;-67
2021/01/14 08:16:31;;;;;;;;;;;;;;;-0.30;100.00;100709.81;5093388;28;19924;-67
2021/01/14 08:19:10;;;;;;;;;;;;;;;-0.29;100.00;100714.22;5096311;28;20460;-68
2021/01/14 08:21:37;;;;;;;;;;;;;;;-0.32;100.00;100711.66;5108142;27;19924;-68
2021/01/14 08:24:03;;;;;;;;;;;;;;;-0.27;100.00;100721.22;5094821;28;20015;-67
2021/01/14 08:26:29;;;;;;;;;;;;;;;-0.27;100.00;100718.56;5096276;28;19935;-68
2021/01/14 08:28:58;;;;;;;;;;;;;;;-0.11;100.00;100726.03;5108415;28;19955;-69
2021/01/14 08:31:34;;;;;;;;;;;;;;;0.09;100.00;100725.28;5109134;28;19967;-69
2021/01/14 08:34:01;;;;;;;;;;;;;;;0.57;100.00;100734.13;5097882;28;20450;-69
2021/01/14 08:36:28;;;;;;;;;;;;;;;0.86;100.00;100748.13;5112183;28;20019;-69
2021/01/14 08:38:55;;;;;;;;;;;;;;;1.11;100.00;100746.19;5105757;28;19977;-68
2021/01/14 08:41:27;;;;;;;;;;;;;;;1.36;100.00;100742.47;5109049;28;19994;-69
2021/01/14 08:44:00;;;;;;;;;;;;;;;1.56;100.00;100743.44;5112466;28;20469;-70
2021/01/14 08:46:38;;;;;;;;;;;;;;;1.52;100.00;100744.50;5110932;28;19982;-69
2021/01/14 08:49:10;;;;;;;;;;;;;;;1.43;100.00;100752.00;5094317;28;19924;-69
2021/01/14 08:51:38;;;;;;;;;;;;;;;1.21;100.00;100752.00;5099403;28;20385;-69
2021/01/14 08:54:05;;;;;;;;;;;;;;;1.15;100.00;100766.53;5106153;28;19969;-69
2021/01/14 08:56:31;;;;;;;;;;;;;;;1.12;100.00;100765.75;5092392;28;19924;-70
2021/01/14 08:59:03;;;;;;;;;;;;;;;1.00;100.00;100772.47;5098291;28;19924;-70
2021/01/14 09:01:30;;;;;;;;;;;;;;;1.02;100.00;100781.31;5110973;28;20037;-70
2021/01/14 09:03:57;;;;;;;;;;;;;;;0.92;100.00;100791.53;5101185;28;20035;-69
2021/01/14 09:06:29;;;;;;;;;;;;;;;0.77;100.00;100792.97;5112337;28;20046;-68
2021/01/14 09:08:57;;;;;;;;;;;;;;;0.61;100.00;100807.88;5097462;28;19924;-68
2021/01/14 09:11:24;;;;;;;;;;;;;;;0.42;100.00;100813.06;5091943;28;20289;-68
2021/01/14 09:13:59;;;;;;;;;;;;;;;0.52;100.00;100818.91;5101899;28;19987;-67
2021/01/14 09:16:25;;;;;;;;;;;;;;;0.52;100.00;100818.91;5112417;28;19934;-67
2021/01/14 09:18:51;;;;;;;;;;;;;;;0.48;100.00;100824.38;5101718;28;20007;-68
2021/01/14 09:21:17;;;;;;;;;;;;;;;0.52;100.00;100830.47;5092242;28;19923;-68
2021/01/14 09:23:42;;;;;;;;;;;;;;;0.52;100.00;100825.13;5092417;28;20080;-67
2021/01/14 09:26:10;;;;;;;;;;;;;;;0.46;100.00;100836.91;5092290;28;19924;-68
2021/01/14 09:28:37;;;;;;;;;;;;;;;0.50;100.00;100840.34;5097329;28;20055;-67
2021/01/14 09:31:04;;;;;;;;;;;;;;;0.52;100.00;100845.63;5091893;28;19960;-67
2021/01/14 09:33:31;;;;;;;;;;;;;;;0.50;100.00;100843.88;5109027;28;19932;-67
2021/01/14 09:36:02;;;;;;;;;;;;;;;0.50;100.00;100840.34;5109532;28;19963;-67
2021/01/14 09:38:28;;;;;;;;;;;;;;;0.47;100.00;100849.34;5111777;28;19950;-69
2021/01/14 09:40:54;;;;;;;;;;;;;;;0.40;100.00;100858.53;5111656;28;19924;-66
2021/01/14 09:43:21;;;;;;;;;;;;;;;0.49;100.00;100857.31;5106705;28;19947;-68
2021/01/14 09:45:48;;;;;;;;;;;;;;;0.78;100.00;100866.88;5091444;28;19971;-68
2021/01/14 09:48:14;;;;;;;;;;;;;;;1.01;100.00;100854.44;5100639;28;20022;-68
2021/01/14 09:50:40;;;;;;;;;;;;;;;1.11;100.00;100852.25;5112281;28;19931;-68
2021/01/14 09:53:07;;;;;;;;;;;;;;;1.43;100.00;100853.66;5111297;28;19928;-67
2021/01/14 09:55:34;;;;;;;;;;;;;;;1.63;100.00;100854.59;5111865;28;20584;-68
2021/01/14 09:58:00;;;;;;;;;;;;;;;1.74;100.00;100852.38;5104829;28;20019;-69
2021/01/14 10:00:27;;;;;;;;;;;;;;;1.48;100.00;100856.13;5098565;28;20035;-68
2021/01/14 10:03:00;;;;;;;;;;;;;;;1.43;100.00;100861.69;5097020;28;19955;-68
2021/01/14 10:05:26;;;;;;;;;;;;;;;1.27;100.00;100861.44;5110249;28;19934;-69
2021/01/14 10:07:54;;;;;;;;;;;;;;;1.20;100.00;100873.28;5094519;28;19924;-69
2021/01/14 10:10:20;;;;;;;;;;;;;;;1.21;100.00;100890.22;5104718;28;19923;-68
2021/01/14 10:12:53;;;;;;;;;;;;;;;1.25;100.00;100897.19;5111025;28;19931;-68
2021/01/14 10:15:19;;;;;;;;;;;;;;;1.30;100.00;100897.88;5102940;28;19959;-68
2021/01/14 10:17:45;;;;;;;;;;;;;;;1.22;100.00;100902.66;5091374;28;19924;-68
2021/01/14 10:20:13;;;;;;;;;;;;;;;1.08;100.00;100901.41;5099885;28;19924;-68
2021/01/14 10:22:44;;;;;;;;;;;;;;;1.07;100.00;100905.00;5111688;28;19924;-69
2021/01/14 10:25:10;;;;;;;;;;;;;;;1.22;100.00;100905.34;5091844;28;19974;-68
2021/01/14 10:27:36;;;;;;;;;;;;;;;1.23;100.00;100899.03;5102001;28;20305;-69
2021/01/14 10:30:18;;;;;;;;;;;;;;;1.40;100.00;100901.91;5111209;28;19924;-68
2021/01/14 10:32:44;;;;;;;;;;;;;;;1.80;100.00;100910.13;5105172;28;19959;-68
2021/01/14 10:35:22;;;;;;;;;;;;;;;1.92;100.00;100903.38;5110518;28;19931;-68
2021/01/14 10:37:48;;;;;;;;;;;;;;;1.96;100.00;100891.59;5106205;28;19924;-68
2021/01/14 10:40:17;;;;;;;;;;;;;;;1.80;100.00;100892.28;5110277;28;19959;-68
2021/01/14 10:42:47;;;;;;;;;;;;;;;1.90;100.00;100881.16;5111422;28;19970;-68
2021/01/14 10:45:14;;;;;;;;;;;;;;;2.19;100.00;100887.91;5091351;28;19974;-68
2021/01/14 10:47:40;;;;;;;;;;;;;;;2.30;100.00;100887.47;5096973;28;19971;-68
2021/01/14 10:50:19;;;;;;;;;;;;;;;2.53;100.00;100888.25;5103215;28;19977;-68
2021/01/14 10:52:56;;;;;;;;;;;;;;;2.26;100.00;100888.53;5109704;28;19924;-69
2021/01/14 10:55:22;;;;;;;;;;;;;;;2.28;100.00;100900.91;5101171;28;19974;-69
2021/01/14 10:57:52;;;;;;;;;;;;;;;2.20;100.00;100895.03;5090779;28;20027;-69
2021/01/14 11:00:19;;;;;;;;;;;;;;;2.21;100.00;100890.56;5107012;28;19923;-69
2021/01/14 11:02:45;;;;;;;;;;;;;;;2.36;100.00;100892.53;5105921;28;19924;-68
2021/01/14 11:05:11;;;;;;;;;;;;;;;2.41;100.00;100890.53;5106917;28;20266;-68
2021/01/14 11:07:37;;;;;;;;;;;;;;;2.17;100.00;100895.16;5097266;28;19931;-68
2021/01/14 11:10:06;;;;;;;;;;;;;;;2.01;100.00;100892.28;5105801;28;19924;-68
2021/01/14 11:12:32;;;;;;;;;;;;;;;2.03;100.00;100893.06;5111095;28;20031;-68
2021/01/14 11:14:58;;;;;;;;;;;;;;;2.18;100.00;100896.91;5112602;28;19931;-68
2021/01/14 11:17:25;;;;;;;;;;;;;;;1.93;100.00;100897.09;5102615;28;19973;-68
2021/01/14 11:19:51;;;;;;;;;;;;;;;1.96;100.00;100905.00;5115120;28;20397;-68
2021/01/14 11:22:17;;;;;;;;;;;;;;;1.69;100.00;100889.16;5113856;28;19935;-68
2021/01/14 11:24:42;;;;;;;;;;;;;;;1.57;100.00;100895.03;5115000;28;19963;-67
2021/01/14 11:27:09;;;;;;;;;;;;;;;1.43;100.00;100904.47;5104270;28;20381;-67
2021/01/14 11:29:35;;;;;;;;;;;;;;;1.32;100.00;100906.69;5113407;28;20427;-68
2021/01/14 11:32:01;;;;;;;;;;;;;;;1.25;100.00;100911.41;5111557;28;19931;-67
2021/01/14 11:34:27;;;;;;;;;;;;;;;1.05;100.00;100919.38;5112043;28;19931;-67
2021/01/14 11:36:52;;;;;;;;;;;;;;;0.90;100.00;100920.81;5109170;28;20377;-67
2021/01/14 11:39:18;;;;;;;;;;;;;;;0.79;100.00;100915.88;5112779;28;19955;-67
2021/01/14 11:41:44;;;;;;;;;;;;;;;0.81;100.00;100925.56;5094365;28;19928;-67
2021/01/14 11:44:11;;;;;;;;;;;;;;;0.75;100.00;100916.91;5094050;28;19924;-67
2021/01/14 11:46:36;;;;;;;;;;;;;;;0.75;100.00;100919.56;5114138;28;19924;-67
2021/01/14 11:49:02;;;;;;;;;;;;;;;0.80;100.00;100917.59;5114215;28;19924;-67
2021/01/14 11:51:28;;;;;;;;;;;;;;;0.89;100.00;100924.41;5105817;28;20706;-67
2021/01/14 11:53:54;;;;;;;;;;;;;;;1.07;100.00;100936.19;5114059;28;19924;-67
2021/01/14 11:56:20;;;;;;;;;;;;;;;1.04;100.00;100928.31;5113203;28;19949;-66
2021/01/14 11:58:46;;;;;;;;;;;;;;;1.08;100.00;100940.63;5114286;28;19924;-67
2021/01/14 12:01:12;;;;;;;;;;;;;;;0.97;100.00;100941.91;5097824;28;19924;-67
2021/01/14 12:03:39;;;;;;;;;;;;;;;0.91;100.00;100936.81;5113121;28;19923;-67
2021/01/14 12:06:05;;;;;;;;;;;;;;;0.84;100.00;100943.28;5113279;28;20006;-67
2021/01/14 12:08:31;;;;;;;;;;;;;;;0.75;100.00;100944.53;5101524;28;19955;-67
2021/01/14 12:10:57;;;;;;;;;;;;;;;0.70;100.00;100946.47;5112439;28;19935;-67
2021/01/14 12:13:22;;;;;;;;;;;;;;;0.64;100.00;100947.59;5113619;28;19924;-67
2021/01/14 12:15:49;;;;;;;;;;;;;;;0.61;100.00;100942.34;5113141;28;19923;-67
2021/01/14 12:18:15;;;;;;;;;;;;;;;0.59;100.00;100937.97;5102147;28;19974;-67
2021/01/14 12:20:41;;;;;;;;;;;;;;;0.62;100.00;100940.56;5107279;28;19927;-67
2021/01/14 12:23:07;;;;;;;;;;;;;;;0.60;100.00;100945.97;5106669;28;19966;-67
2021/01/14 12:25:33;;;;;;;;;;;;;;;0.65;100.00;100951.13;5112084;28;19924;-68
2021/01/14 12:27:59;;;;;;;;;;;;;;;0.64;100.00;100952.94;5106115;28;19935;-68
2021/01/14 12:30:25;;;;;;;;;;;;;;;0.58;100.00;100946.94;5094254;28;19972;-67
2021/01/14 12:32:50;;;;;;;;;;;;;;;0.54;100.00;100950.66;5098510;28;20420;-67
2021/01/14 12:35:17;;;;;;;;;;;;;;;0.53;100.00;100951.56;5113426;28;19927;-68